Time;durP1;ratioP1;P1;durP2;ratioP2;P2;SDS_P1;SDS_P2;PMS_P1;PMS_P2;Temp;Humidity;BMP_temperature;BMP_pressure;BME280_temperature;BME280_humidity;BME280_pressure;Samples;Min_cycle;Max_cycle;Signal;HPM_P1;HPM_P2
2021/05/12 00:00:22;;;;;;;8.93;1.40;;;19.30;99.90;;;;;;5033479;28;20250;-69
2021/05/12 00:02:50;;;;;;;8.33;1.43;;;19.40;99.90;;;;;;5032944;28;20177;-72
2021/05/12 00:05:21;;;;;;;6.83;1.57;;;19.50;99.90;;;;;;5032246;28;20326;-79
2021/05/12 00:07:49;;;;;;;7.33;1.23;;;19.70;99.90;;;;;;5032809;28;20188;-70
2021/05/12 00:10:17;;;;;;;4.03;1.00;;;19.80;99.90;;;;;;5032396;28;20196;-71
2021/05/12 00:12:46;;;;;;;8.27;1.30;;;19.90;99.90;;;;;;5032943;28;20192;-73
2021/05/12 00:15:18;;;;;;;6.37;1.40;;;20.00;99.90;;;;;;5030918;28;20302;-71
2021/05/12 00:17:48;;;;;;;7.10;1.40;;;19.80;99.90;;;;;;5032310;28;20184;-73
2021/05/12 00:20:20;;;;;;;2.73;0.90;;;19.80;99.90;;;;;;5031951;28;20176;-71
2021/05/12 00:22:53;;;;;;;6.33;1.40;;;19.70;99.90;;;;;;5032661;28;20180;-69
2021/05/12 00:25:21;;;;;;;11.00;1.60;;;19.70;99.90;;;;;;5032761;28;20188;-73
2021/05/12 00:27:48;;;;;;;10.17;1.80;;;19.90;99.90;;;;;;5032358;28;20199;-71
2021/05/12 00:30:20;;;;;;;4.70;1.27;;;20.00;99.90;;;;;;5016810;28;20185;-78
2021/05/12 00:32:47;;;;;;;7.30;1.53;;;19.90;99.90;;;;;;5014821;28;20711;-71
2021/05/12 00:35:15;;;;;;;4.33;1.30;;;19.90;99.90;;;;;;5029929;28;20284;-72
2021/05/12 00:37:43;;;;;;;12.63;1.40;;;20.00;99.90;;;;;;5032743;28;20640;-70
2021/05/12 00:40:13;;;;;;;7.93;2.30;;;20.00;99.90;;;;;;5031699;28;20247;-82
2021/05/12 00:42:41;;;;;;;6.40;1.30;;;20.00;99.90;;;;;;5031783;28;20180;-77
2021/05/12 00:45:12;;;;;;;7.03;1.43;;;20.00;99.90;;;;;;5032082;28;20175;-74
2021/05/12 00:47:39;;;;;;;6.13;1.13;;;20.00;99.90;;;;;;5031208;28;20555;-72
2021/05/12 00:50:08;;;;;;;6.07;1.30;;;20.10;99.90;;;;;;5031768;28;20728;-72
2021/05/12 00:52:36;;;;;;;4.53;1.20;;;20.10;99.90;;;;;;5045143;28;20185;-76
2021/05/12 00:55:04;;;;;;;7.20;1.30;;;20.10;99.90;;;;;;5031247;28;20350;-71
2021/05/12 00:57:33;;;;;;;5.90;1.20;;;20.10;99.90;;;;;;5031437;28;20180;-76
2021/05/12 01:00:01;;;;;;;5.90;1.40;;;20.20;99.90;;;;;;5031671;28;20557;-75
2021/05/12 01:02:28;;;;;;;8.63;1.10;;;20.20;99.90;;;;;;5031589;28;20177;-71
2021/05/12 01:04:56;;;;;;;5.63;1.40;;;20.20;99.90;;;;;;5031311;28;20179;-74
2021/05/12 01:07:23;;;;;;;5.23;1.50;;;20.20;99.90;;;;;;5031042;28;20169;-76
2021/05/12 01:09:50;;;;;;;7.37;1.27;;;20.30;99.90;;;;;;5030838;28;20654;-71
2021/05/12 01:12:18;;;;;;;5.70;1.83;;;20.50;99.90;;;;;;5030950;28;20663;-70
2021/05/12 01:14:45;;;;;;;2.20;1.00;;;20.70;99.90;;;;;;5031932;28;20220;-70
2021/05/12 01:17:14;;;;;;;6.07;1.03;;;20.80;99.90;;;;;;5030793;28;20188;-72
2021/05/12 01:19:43;;;;;;;1.37;1.27;;;20.80;99.90;;;;;;5032016;28;20181;-75
2021/05/12 01:22:11;;;;;;;3.40;1.37;;;20.50;99.90;;;;;;5030031;28;20185;-73
2021/05/12 01:24:38;;;;;;;6.33;1.20;;;20.40;99.90;;;;;;5032145;28;20192;-77
2021/05/12 01:27:07;;;;;;;5.33;1.37;;;20.60;99.90;;;;;;5031908;28;20215;-76
2021/05/12 01:29:35;;;;;;;6.53;1.10;;;20.90;99.90;;;;;;5027786;28;20173;-75
2021/05/12 01:32:06;;;;;;;5.87;0.83;;;21.10;99.90;;;;;;5029423;28;20232;-77
2021/05/12 01:34:33;;;;;;;3.97;1.00;;;21.20;99.90;;;;;;5031302;28;20414;-77
2021/05/12 01:37:01;;;;;;;2.37;1.20;;;21.20;99.90;;;;;;5030518;28;21281;-80
2021/05/12 01:39:28;;;;;;;3.87;1.13;;;21.10;99.90;;;;;;5031084;28;20268;-76
2021/05/12 01:41:56;;;;;;;4.33;0.90;;;20.90;99.90;;;;;;5031410;28;20181;-80
2021/05/12 01:44:23;;;;;;;7.10;1.20;;;20.80;99.90;;;;;;5031510;28;20239;-77
2021/05/12 01:46:51;;;;;;;2.27;0.93;;;20.90;99.90;;;;;;5031265;28;20180;-76
2021/05/12 01:49:18;;;;;;;4.43;1.20;;;20.90;99.90;;;;;;5029571;28;20188;-81
2021/05/12 01:51:46;;;;;;;6.43;1.30;;;21.00;99.90;;;;;;5030576;28;20247;-80
2021/05/12 01:54:13;;;;;;;3.87;1.07;;;21.40;99.90;;;;;;5030878;28;20671;-82
2021/05/12 01:56:42;;;;;;;6.10;1.00;;;21.80;99.90;;;;;;5030996;28;20215;-83
2021/05/12 01:59:10;;;;;;;3.97;1.10;;;21.90;99.90;;;;;;5027236;28;20184;-82
2021/05/12 02:01:38;;;;;;;8.13;1.73;;;21.90;99.90;;;;;;5030698;28;20231;-77
2021/05/12 02:04:07;;;;;;;7.83;1.67;;;21.90;99.90;;;;;;5025918;28;20181;-82
2021/05/12 02:06:35;;;;;;;4.93;1.10;;;22.00;99.90;;;;;;5030571;28;20643;-77
2021/05/12 02:09:07;;;;;;;6.10;1.53;;;22.10;99.90;;;;;;5030162;28;20230;-77
2021/05/12 02:11:38;;;;;;;7.30;1.43;;;22.00;99.90;;;;;;5034589;28;20184;-78
2021/05/12 02:14:07;;;;;;;5.73;1.27;;;21.80;99.90;;;;;;5030628;28;20690;-79
2021/05/12 02:16:36;;;;;;;7.57;1.07;;;21.70;99.90;;;;;;5031696;28;20183;-77
2021/05/12 02:19:04;;;;;;;6.33;0.93;;;21.70;99.90;;;;;;5032723;28;20546;-80
2021/05/12 02:21:31;;;;;;;10.70;1.63;;;21.80;99.90;;;;;;5026911;28;20199;-72
2021/05/12 02:23:58;;;;;;;3.63;1.10;;;21.80;99.90;;;;;;5032815;28;20596;-78
2021/05/12 02:26:26;;;;;;;7.60;1.10;;;21.80;99.90;;;;;;5033284;28;20177;-76
2021/05/12 02:28:53;;;;;;;8.17;1.37;;;22.10;99.90;;;;;;5032491;28;20627;-72
2021/05/12 02:31:20;;;;;;;10.50;1.37;;;22.20;99.90;;;;;;5033708;28;20220;-71
2021/05/12 02:33:48;;;;;;;5.60;1.33;;;22.50;99.90;;;;;;5033279;28;20212;-72
2021/05/12 02:36:15;;;;;;;6.43;0.97;;;22.80;99.90;;;;;;5032157;28;20188;-73
2021/05/12 02:38:42;;;;;;;6.80;1.23;;;22.80;99.90;;;;;;5032738;28;20631;-77
2021/05/12 02:41:11;;;;;;;7.87;1.20;;;23.10;99.90;;;;;;5031169;28;20246;-75
2021/05/12 02:43:39;;;;;;;5.10;1.40;;;23.10;99.90;;;;;;5030013;28;20227;-75
2021/05/12 02:46:06;;;;;;;4.00;1.00;;;23.20;99.90;;;;;;5031046;28;20177;-77
2021/05/12 02:48:33;;;;;;;9.97;1.60;;;23.00;99.90;;;;;;5032493;28;20189;-76
2021/05/12 02:51:01;;;;;;;8.47;1.53;;;22.90;99.90;;;;;;5033192;28;20619;-76
2021/05/12 02:53:28;;;;;;;7.07;1.33;;;23.20;99.90;;;;;;5032868;28;20208;-75
2021/05/12 02:55:55;;;;;;;7.87;1.23;;;23.30;99.90;;;;;;5031819;28;20195;-77
2021/05/12 02:58:23;;;;;;;9.43;2.17;;;23.40;99.90;;;;;;5032048;28;20172;-76
2021/05/12 03:00:50;;;;;;;7.10;1.20;;;23.50;99.90;;;;;;5033139;28;20196;-74
2021/05/12 03:03:17;;;;;;;8.67;1.50;;;23.40;99.90;;;;;;5033060;28;20185;-82
2021/05/12 03:05:45;;;;;;;8.90;1.30;;;23.50;99.90;;;;;;5032320;28;20189;-78
2021/05/12 03:08:12;;;;;;;5.17;1.40;;;23.50;99.90;;;;;;5031997;28;20192;-80
2021/05/12 03:10:40;;;;;;;5.90;1.70;;;23.50;99.90;;;;;;5031941;28;20184;-68
2021/05/12 03:13:08;;;;;;;4.43;1.30;;;23.40;99.90;;;;;;5031423;28;20189;-79
2021/05/12 03:15:37;;;;;;;11.93;1.80;;;23.40;99.90;;;;;;5032486;28;20243;-76
2021/05/12 03:18:05;;;;;;;5.27;1.40;;;23.60;99.90;;;;;;5028638;28;20241;-78
2021/05/12 03:20:33;;;;;;;7.70;2.07;;;23.90;99.90;;;;;;5031321;28;20192;-75
2021/05/12 03:23:01;;;;;;;5.47;1.37;;;24.00;99.90;;;;;;5031828;28;20184;-79
2021/05/12 03:25:29;;;;;;;8.03;1.30;;;24.20;99.90;;;;;;5032227;28;20636;-76
2021/05/12 03:27:57;;;;;;;7.73;1.37;;;24.30;99.90;;;;;;5032359;28;20309;-81
2021/05/12 03:30:34;;;;;;;14.37;1.53;;;24.70;99.90;;;;;;5032545;28;20193;-78
2021/05/12 03:33:02;;;;;;;5.60;1.50;;;24.50;99.90;;;;;;5033166;28;20311;-84
2021/05/12 03:35:30;;;;;;;5.63;1.40;;;24.50;99.90;;;;;;5015457;28;20276;-78
2021/05/12 03:37:57;;;;;;;7.57;1.70;;;24.60;99.90;;;;;;5024476;28;20267;-79
2021/05/12 03:40:27;;;;;;;5.63;1.20;;;24.80;99.90;;;;;;5032544;28;20537;-77
2021/05/12 03:42:55;;;;;;;7.83;1.50;;;24.50;99.90;;;;;;5032553;28;20268;-80
2021/05/12 03:45:23;;;;;;;4.93;1.37;;;24.40;99.90;;;;;;5033499;28;20230;-81
2021/05/12 03:47:52;;;;;;;7.43;1.90;;;24.30;99.90;;;;;;5032162;28;20185;-76
2021/05/12 03:50:20;;;;;;;9.73;1.60;;;24.50;99.90;;;;;;5032166;28;20226;-82
2021/05/12 03:52:48;;;;;;;5.33;1.87;;;24.30;99.90;;;;;;5033156;28;20172;-84
2021/05/12 03:55:16;;;;;;;7.80;1.27;;;24.10;99.90;;;;;;5033055;28;20205;-80
2021/05/12 03:57:45;;;;;;;7.00;1.63;;;24.20;99.90;;;;;;5032369;28;20172;-78
2021/05/12 04:00:14;;;;;;;8.67;1.20;;;24.40;99.90;;;;;;5032520;28;20566;-84
2021/05/12 04:02:42;;;;;;;5.30;1.27;;;25.00;99.90;;;;;;5032091;28;20536;-85
2021/05/12 04:05:11;;;;;;;6.83;1.17;;;25.50;99.90;;;;;;5032895;28;20704;-78
2021/05/12 04:07:39;;;;;;;6.77;1.27;;;25.70;99.90;;;;;;5032392;28;20177;-75
2021/05/12 04:10:07;;;;;;;7.60;1.53;;;25.40;99.90;;;;;;5031474;28;20169;-75
2021/05/12 04:12:35;;;;;;;4.70;1.20;;;25.10;99.90;;;;;;5031924;28;20326;-75
2021/05/12 04:15:04;;;;;;;8.27;1.50;;;25.10;99.90;;;;;;5031349;28;20211;-81
2021/05/12 04:17:31;;;;;;;5.97;1.27;;;25.20;99.90;;;;;;5033998;28;20173;-68
2021/05/12 04:19:58;;;;;;;7.00;1.50;;;25.10;99.90;;;;;;5032703;28;20658;-71
2021/05/12 04:22:26;;;;;;;9.87;1.20;;;25.10;99.90;;;;;;5031713;28;20710;-69
2021/05/12 04:24:53;;;;;;;8.77;1.60;;;25.30;99.90;;;;;;5032829;28;20647;-71
2021/05/12 04:27:20;;;;;;;6.17;1.53;;;25.40;99.90;;;;;;5032298;28;20278;-74
2021/05/12 04:29:48;;;;;;;8.60;1.10;;;26.00;99.90;;;;;;5031855;28;20192;-69
2021/05/12 04:32:16;;;;;;;5.97;1.30;;;25.70;99.90;;;;;;5031013;28;20318;-71
2021/05/12 04:34:43;;;;;;;7.93;1.60;;;24.80;99.90;;;;;;5032625;28;20291;-70
2021/05/12 04:37:10;;;;;;;5.27;1.20;;;23.90;99.90;;;;;;5032282;28;20268;-70
2021/05/12 04:39:38;;;;;;;8.30;1.40;;;23.80;99.90;;;;;;5028500;28;20184;-79
2021/05/12 04:42:06;;;;;;;9.13;1.43;;;24.10;99.90;;;;;;5030932;28;20667;-78
2021/05/12 04:44:33;;;;;;;7.87;1.57;;;24.40;99.90;;;;;;5032345;28;20185;-79
2021/05/12 04:47:00;;;;;;;8.40;1.57;;;24.80;99.90;;;;;;5031658;28;20193;-82
2021/05/12 04:49:28;;;;;;;9.67;1.40;;;24.90;99.90;;;;;;5032692;28;20271;-77
2021/05/12 04:51:55;;;;;;;7.70;1.67;;;25.30;99.90;;;;;;5031979;28;20177;-79
2021/05/12 04:54:23;;;;;;;6.93;1.73;;;25.20;99.90;;;;;;5031746;28;20200;-78
2021/05/12 04:56:50;;;;;;;7.90;1.47;;;25.50;99.90;;;;;;5030250;28;20220;-75
2021/05/12 04:59:17;;;;;;;13.23;1.73;;;25.20;99.90;;;;;;5031597;28;20552;-79
2021/05/12 05:01:45;;;;;;;7.13;1.17;;;25.00;99.90;;;;;;5030798;28;20177;-78
2021/05/12 05:04:16;;;;;;;9.93;1.63;;;25.40;99.90;;;;;;5030290;28;20192;-79
2021/05/12 05:06:43;;;;;;;10.73;1.50;;;25.60;99.90;;;;;;5030311;28;20188;-79
2021/05/12 05:09:11;;;;;;;12.70;2.23;;;25.40;99.90;;;;;;5031180;28;20208;-75
2021/05/12 05:11:38;;;;;;;7.10;1.60;;;25.20;99.90;;;;;;5031318;28;20187;-79
2021/05/12 05:14:07;;;;;;;9.50;1.40;;;25.00;99.90;;;;;;5030633;28;20243;-76
2021/05/12 05:16:35;;;;;;;8.10;1.70;;;25.00;99.90;;;;;;5029226;28;20184;-80
2021/05/12 05:19:02;;;;;;;7.23;1.77;;;25.10;99.90;;;;;;5030478;28;20272;-79
2021/05/12 05:21:30;;;;;;;4.80;1.30;;;25.10;99.90;;;;;;5030543;28;20191;-78
2021/05/12 05:23:58;;;;;;;9.03;1.47;;;25.50;99.90;;;;;;5029383;28;20188;-75
2021/05/12 05:26:26;;;;;;;8.13;1.83;;;25.20;99.90;;;;;;5028737;28;20654;-73
2021/05/12 05:28:53;;;;;;;6.70;1.23;;;24.90;99.90;;;;;;5030593;28;20181;-70
2021/05/12 05:31:20;;;;;;;7.80;1.70;;;24.60;99.90;;;;;;5028221;28;20240;-71
2021/05/12 05:33:48;;;;;;;9.67;2.07;;;24.60;99.90;;;;;;5030841;28;20212;-77
2021/05/12 05:36:15;;;;;;;8.97;2.20;;;24.90;99.90;;;;;;5028220;28;20290;-69
2021/05/12 05:38:42;;;;;;;10.00;1.77;;;24.60;99.90;;;;;;5030300;28;20204;-74
2021/05/12 05:41:10;;;;;;;7.77;2.07;;;24.70;99.90;;;;;;5030479;28;20207;-79
2021/05/12 05:43:37;;;;;;;11.10;2.00;;;24.50;99.90;;;;;;5036114;28;20678;-76
2021/05/12 05:46:05;;;;;;;10.03;1.60;;;24.60;99.90;;;;;;5036353;28;20191;-77
2021/05/12 05:48:32;;;;;;;8.20;1.73;;;24.30;99.90;;;;;;5037010;28;20180;-74
2021/05/12 05:51:01;;;;;;;6.43;1.77;;;24.30;99.90;;;;;;5032322;28;20177;-83
2021/05/12 05:53:29;;;;;;;7.07;1.47;;;24.00;99.90;;;;;;5033692;28;20208;-77
2021/05/12 05:55:56;;;;;;;6.50;1.70;;;24.20;99.90;;;;;;5030582;28;20180;-72
2021/05/12 05:58:23;;;;;;;10.20;2.00;;;24.00;99.90;;;;;;5034236;28;20184;-76
2021/05/12 06:00:51;;;;;;;9.50;2.47;;;23.40;99.90;;;;;;5034795;28;20678;-78
2021/05/12 06:03:18;;;;;;;12.33;2.03;;;23.30;99.90;;;;;;5034442;28;20179;-71
2021/05/12 06:05:47;;;;;;;8.53;1.70;;;23.50;99.90;;;;;;5033961;28;20184;-73
2021/05/12 06:08:15;;;;;;;8.27;1.87;;;23.00;99.90;;;;;;5033194;28;20179;-76
2021/05/12 06:10:42;;;;;;;12.77;2.27;;;22.50;99.90;;;;;;5034794;28;20258;-78
2021/05/12 06:13:09;;;;;;;6.83;1.90;;;22.10;99.90;;;;;;5034510;28;20258;-73
2021/05/12 06:15:39;;;;;;;11.27;1.97;;;21.60;99.90;;;;;;5035025;28;20543;-75
2021/05/12 06:18:07;;;;;;;11.50;2.53;;;21.50;99.90;;;;;;5033167;28;20169;-74
2021/05/12 06:20:34;;;;;;;15.37;1.87;;;21.10;99.90;;;;;;5034761;28;20181;-73
2021/05/12 06:23:06;;;;;;;8.17;1.67;;;20.90;99.90;;;;;;5033921;28;20181;-77
2021/05/12 06:25:33;;;;;;;14.03;2.57;;;20.60;99.90;;;;;;5033611;28;20181;-74
2021/05/12 06:28:00;;;;;;;8.30;2.13;;;20.60;99.90;;;;;;5034024;28;20191;-75
2021/05/12 06:30:28;;;;;;;8.57;2.00;;;20.40;99.90;;;;;;5033345;28;20300;-78
2021/05/12 06:32:56;;;;;;;9.57;2.20;;;20.30;99.90;;;;;;5034396;28;20228;-81
2021/05/12 06:35:24;;;;;;;11.40;2.40;;;20.20;99.90;;;;;;5033482;28;20216;-74
2021/05/12 06:37:51;;;;;;;11.57;2.10;;;20.10;99.90;;;;;;5033814;28;20183;-77
2021/05/12 06:40:19;;;;;;;8.17;1.80;;;20.10;99.90;;;;;;5022930;28;20212;-74
2021/05/12 06:42:46;;;;;;;9.07;1.67;;;20.00;99.90;;;;;;5034700;28;20541;-77
2021/05/12 06:45:14;;;;;;;6.87;1.93;;;20.00;99.90;;;;;;5032743;28;20173;-79
2021/05/12 06:47:42;;;;;;;10.67;2.00;;;19.80;99.90;;;;;;5034340;28;20627;-82
2021/05/12 06:50:10;;;;;;;9.70;2.50;;;19.70;99.90;;;;;;5034713;28;20624;-76
2021/05/12 06:52:37;;;;;;;7.20;1.63;;;19.70;99.90;;;;;;5034260;28;20184;-79
2021/05/12 06:55:05;;;;;;;11.67;2.13;;;19.60;99.90;;;;;;5032503;28;20220;-76
2021/05/12 06:57:32;;;;;;;12.77;1.90;;;19.60;99.90;;;;;;5034465;28;20187;-76
2021/05/12 07:00:00;;;;;;;8.50;1.47;;;19.60;99.90;;;;;;5023869;28;20176;-80
2021/05/12 07:02:27;;;;;;;10.20;1.70;;;19.50;99.90;;;;;;5033860;28;20615;-77
2021/05/12 07:04:54;;;;;;;9.43;1.90;;;19.40;99.90;;;;;;5033426;28;20180;-76
2021/05/12 07:07:21;;;;;;;8.07;1.67;;;19.40;99.90;;;;;;5033900;28;20541;-80
2021/05/12 07:09:49;;;;;;;8.57;1.93;;;19.40;99.90;;;;;;5033450;28;20196;-81
2021/05/12 07:12:17;;;;;;;12.50;2.40;;;19.30;99.90;;;;;;5033416;28;20298;-71
2021/05/12 07:14:44;;;;;;;10.97;2.33;;;19.40;99.90;;;;;;5032876;28;20694;-78
2021/05/12 07:17:12;;;;;;;13.17;2.67;;;19.30;99.90;;;;;;5032510;28;20270;-78
2021/05/12 07:19:39;;;;;;;11.90;2.07;;;19.20;99.90;;;;;;5032464;28;20219;-78
2021/05/12 07:22:07;;;;;;;16.70;2.03;;;19.30;99.90;;;;;;5033742;28;20578;-82
2021/05/12 07:24:34;;;;;;;6.87;1.80;;;19.20;99.90;;;;;;5032285;28;20184;-81
2021/05/12 07:27:02;;;;;;;5.23;1.70;;;19.20;99.90;;;;;;5044975;28;20269;-76
2021/05/12 07:29:29;;;;;;;9.83;2.43;;;19.10;99.90;;;;;;5031722;28;20176;-83
2021/05/12 07:31:56;;;;;;;8.40;1.93;;;19.10;99.90;;;;;;5032722;28;20556;-77
2021/05/12 07:34:24;;;;;;;10.93;2.17;;;19.10;99.90;;;;;;5033258;28;20208;-75
2021/05/12 07:36:51;;;;;;;6.53;1.70;;;19.00;99.90;;;;;;5031357;28;20606;-74
2021/05/12 07:39:19;;;;;;;14.70;2.20;;;19.00;99.90;;;;;;5032833;28;20189;-72
2021/05/12 07:41:48;;;;;;;19.20;2.40;;;18.90;99.90;;;;;;5032482;28;20188;-76
2021/05/12 07:44:15;;;;;;;9.87;2.40;;;18.90;99.90;;;;;;5033443;28;20646;-83
2021/05/12 07:46:43;;;;;;;7.33;1.70;;;18.90;99.90;;;;;;5034295;28;20208;-81
2021/05/12 07:49:10;;;;;;;8.10;1.43;;;18.90;99.90;;;;;;5032141;28;20555;-79
2021/05/12 07:51:37;;;;;;;13.77;2.63;;;18.90;99.90;;;;;;5032686;28;20189;-82
2021/05/12 07:54:05;;;;;;;16.87;2.40;;;18.90;99.90;;;;;;5032502;28;20208;-82
2021/05/12 07:56:32;;;;;;;12.03;2.10;;;18.80;99.90;;;;;;5027367;28;20538;-80
2021/05/12 07:59:00;;;;;;;6.83;1.80;;;18.80;99.90;;;;;;5033011;28;20184;-80
2021/05/12 08:01:35;;;;;;;12.77;2.40;;;18.90;99.90;;;;;;5032941;28;20547;-82
2021/05/12 08:04:02;;;;;;;9.33;2.40;;;18.90;99.90;;;;;;5018759;28;20661;-76
2021/05/12 08:06:30;;;;;;;13.17;2.40;;;18.80;99.90;;;;;;5032944;28;20206;-80
2021/05/12 08:08:57;;;;;;;13.07;2.20;;;18.90;99.90;;;;;;5030308;28;20180;-81
2021/05/12 08:11:24;;;;;;;10.27;2.27;;;18.80;99.90;;;;;;5032721;28;20196;-81
2021/05/12 08:13:52;;;;;;;8.40;2.20;;;18.80;99.90;;;;;;5031173;28;20215;-72
2021/05/12 08:16:19;;;;;;;10.10;1.83;;;18.80;99.90;;;;;;5031578;28;20188;-72
2021/05/12 08:18:47;;;;;;;15.10;2.30;;;18.70;99.90;;;;;;5032001;28;20538;-84
2021/05/12 08:21:14;;;;;;;12.37;2.60;;;18.70;99.90;;;;;;5031945;28;20172;-74
2021/05/12 08:23:42;;;;;;;11.47;2.40;;;18.70;99.90;;;;;;5028570;28;20204;-74
2021/05/12 08:26:10;;;;;;;11.67;2.10;;;18.70;99.90;;;;;;5031634;28;20662;-83
2021/05/12 08:28:39;;;;;;;13.37;2.67;;;18.70;99.90;;;;;;5031352;28;20615;-83
2021/05/12 08:31:07;;;;;;;18.53;2.77;;;18.60;99.90;;;;;;5020994;28;20228;-81
2021/05/12 08:33:35;;;;;;;13.93;2.77;;;18.60;99.90;;;;;;5032363;28;20704;-78
2021/05/12 08:36:05;;;;;;;10.33;2.07;;;18.50;99.90;;;;;;5032917;28;20209;-82
2021/05/12 08:38:33;;;;;;;12.97;2.33;;;18.50;99.90;;;;;;5030310;28;20184;-79
2021/05/12 08:41:02;;;;;;;16.37;2.73;;;18.50;99.90;;;;;;5030011;28;20195;-75
2021/05/12 08:43:31;;;;;;;11.93;2.50;;;18.50;99.90;;;;;;5032290;28;20189;-76
2021/05/12 08:45:59;;;;;;;10.90;2.33;;;18.50;99.90;;;;;;5031437;28;20181;-71
2021/05/12 08:48:26;;;;;;;11.87;2.37;;;18.50;99.90;;;;;;5032282;28;20238;-78
2021/05/12 08:50:54;;;;;;;14.43;2.30;;;18.50;99.90;;;;;;5031182;28;20293;-77
2021/05/12 08:53:21;;;;;;;16.87;2.50;;;18.50;99.90;;;;;;5032030;28;20219;-80
2021/05/12 08:55:49;;;;;;;10.20;1.83;;;18.50;99.90;;;;;;5031378;28;20192;-81
2021/05/12 08:58:16;;;;;;;12.90;2.97;;;18.50;99.90;;;;;;5031359;28;20184;-81
2021/05/12 09:00:44;;;;;;;13.27;2.40;;;18.50;99.90;;;;;;5031114;28;20210;-81
2021/05/12 09:03:12;;;;;;;12.50;2.50;;;18.40;99.90;;;;;;5022993;28;20177;-82
2021/05/12 09:05:39;;;;;;;14.00;2.20;;;18.40;99.90;;;;;;5028462;28;20234;-82
2021/05/12 09:08:06;;;;;;;10.30;2.27;;;18.40;99.90;;;;;;5031088;28;20196;-84
2021/05/12 09:10:34;;;;;;;13.63;2.57;;;18.40;99.90;;;;;;5027200;28;20192;-82
2021/05/12 09:13:01;;;;;;;10.83;1.83;;;18.40;99.90;;;;;;5031264;28;20563;-81
2021/05/12 09:15:30;;;;;;;11.00;2.03;;;18.40;99.90;;;;;;5030793;28;20312;-77
2021/05/12 09:18:03;;;;;;;9.10;2.30;;;18.50;99.90;;;;;;5031256;28;20180;-83
2021/05/12 09:20:43;;;;;;;11.47;2.43;;;18.50;99.90;;;;;;5035102;28;20215;-80
2021/05/12 09:23:25;;;;;;;10.17;2.37;;;18.50;99.90;;;;;;5034569;28;20218;-80
2021/05/12 09:25:57;;;;;;;16.87;2.20;;;18.50;99.90;;;;;;5022688;28;20188;-82
2021/05/12 09:28:29;;;;;;;12.87;3.70;;;18.50;99.90;;;;;;5034796;28;20366;-76
2021/05/12 09:31:08;;;;;;;8.87;2.40;;;18.50;99.90;;;;;;5026704;28;20275;-77
2021/05/12 09:33:44;;;;;;;8.70;2.33;;;18.50;99.90;;;;;;5034514;28;20215;-79
2021/05/12 09:36:26;;;;;;;10.07;2.33;;;18.50;99.90;;;;;;5034522;28;20203;-79
2021/05/12 09:38:58;;;;;;;12.33;2.53;;;18.40;99.90;;;;;;5033649;28;20189;-71
2021/05/12 09:41:36;;;;;;;14.97;2.17;;;18.40;99.90;;;;;;5034656;28;20179;-81
2021/05/12 09:44:06;;;;;;;11.47;2.73;;;18.40;99.90;;;;;;5035871;28;20647;-74
2021/05/12 09:46:41;;;;;;;14.13;2.63;;;18.40;99.90;;;;;;5034197;28;20199;-78
2021/05/12 09:49:13;;;;;;;14.33;2.17;;;18.30;99.90;;;;;;5033676;28;20667;-80
2021/05/12 09:51:44;;;;;;;6.27;1.80;;;18.30;99.90;;;;;;5034068;28;20218;-79
2021/05/12 09:54:22;;;;;;;8.33;2.10;;;18.30;99.90;;;;;;5034691;28;20205;-79
2021/05/12 09:56:57;;;;;;;8.07;2.27;;;18.30;99.90;;;;;;5030374;28;20272;-72
2021/05/12 09:59:28;;;;;;;10.57;2.67;;;18.20;99.90;;;;;;5033870;28;20199;-80
2021/05/12 10:01:57;;;;;;;7.57;2.10;;;18.20;99.90;;;;;;5035573;28;20177;-79
2021/05/12 10:04:39;;;;;;;6.83;1.43;;;18.20;99.90;;;;;;5033685;28;20189;-79
2021/05/12 10:07:19;;;;;;;7.00;2.10;;;18.20;99.90;;;;;;5032826;28;20181;-78
2021/05/12 10:09:49;;;;;;;11.30;2.13;;;18.20;99.90;;;;;;5031289;28;20215;-80
2021/05/12 10:12:22;;;;;;;12.43;1.93;;;18.10;99.90;;;;;;5034468;28;20287;-74
2021/05/12 10:14:53;;;;;;;11.87;1.83;;;18.10;99.90;;;;;;5034569;28;20235;-73
2021/05/12 10:17:21;;;;;;;10.73;1.97;;;18.10;99.90;;;;;;5033439;28;20181;-74
2021/05/12 10:19:50;;;;;;;15.00;2.77;;;18.10;99.90;;;;;;5034119;28;20219;-72
2021/05/12 10:22:19;;;;;;;10.17;2.33;;;18.10;99.90;;;;;;5033758;28;20665;-72
2021/05/12 10:24:48;;;;;;;10.07;2.30;;;18.10;99.90;;;;;;5033739;28;20191;-74
2021/05/12 10:27:19;;;;;;;11.33;1.80;;;18.10;99.90;;;;;;5034193;28;20187;-76
2021/05/12 10:29:55;;;;;;;9.00;2.37;;;18.10;99.90;;;;;;5033214;28;20185;-82
2021/05/12 10:32:36;;;;;;;10.77;1.90;;;18.10;99.90;;;;;;5033183;28;20323;-77
2021/05/12 10:35:08;;;;;;;11.00;2.13;;;18.10;99.90;;;;;;5029993;28;20222;-77
2021/05/12 10:37:41;;;;;;;10.10;2.23;;;18.10;99.90;;;;;;5033077;28;20339;-80
2021/05/12 10:40:26;;;;;;;6.03;1.63;;;18.10;99.90;;;;;;5033193;28;20191;-71
2021/05/12 10:45:36;;;;;;;9.43;2.03;;;18.10;99.90;;;;;;5031681;28;20187;-78
2021/05/12 10:48:04;;;;;;;17.40;2.27;;;18.10;99.90;;;;;;5033414;28;20211;-80
2021/05/12 10:50:44;;;;;;;7.53;1.83;;;18.00;99.90;;;;;;5033405;28;20234;-74
2021/05/12 10:53:23;;;;;;;19.70;2.30;;;18.10;99.90;;;;;;5026166;28;20655;-79
2021/05/12 10:56:00;;;;;;;13.77;2.20;;;18.10;99.90;;;;;;5034097;28;20192;-80
2021/05/12 10:58:30;;;;;;;9.73;2.80;;;18.20;99.90;;;;;;5028587;28;20169;-79
2021/05/12 11:01:00;;;;;;;15.10;3.20;;;18.20;99.90;;;;;;5034031;28;20188;-78
2021/05/12 11:03:47;;;;;;;9.73;2.30;;;18.20;99.90;;;;;;5033943;28;20215;-74
2021/05/12 11:06:16;;;;;;;13.03;2.27;;;17.90;99.90;;;;;;5033490;28;20184;-72
2021/05/12 11:09:17;;;;;;;14.27;2.20;;;17.70;99.90;;;;;;5032615;28;20176;-74
2021/05/12 11:11:59;;;;;;;9.83;1.73;;;17.50;99.90;;;;;;5030445;28;20172;-71
2021/05/12 11:14:32;;;;;;;5.47;1.30;;;17.30;99.90;;;;;;5031936;28;20307;-72
2021/05/12 11:17:11;;;;;;;3.63;1.20;;;17.10;99.90;;;;;;5031984;28;20181;-76
2021/05/12 11:19:57;;;;;;;7.17;1.50;;;17.00;99.90;;;;;;5032021;28;20191;-71
2021/05/12 11:33:29;;;;;;;10.47;2.40;;;17.20;99.90;;;;;;5032996;28;20242;-76
2021/05/12 11:36:06;;;;;;;13.67;2.83;;;17.20;99.90;;;;;;5032298;28;20273;-77
2021/05/12 11:38:34;;;;;;;7.73;2.27;;;17.30;99.90;;;;;;5033233;28;20173;-79
2021/05/12 11:41:09;;;;;;;14.43;2.57;;;17.30;99.90;;;;;;5032379;28;20231;-75
2021/05/12 11:43:43;;;;;;;18.17;3.37;;;17.20;99.90;;;;;;5033518;28;20266;-76
2021/05/12 11:46:28;;;;;;;20.10;3.67;;;17.20;99.90;;;;;;5032174;28;20172;-78
2021/05/12 11:49:04;;;;;;;22.73;3.50;;;17.20;99.90;;;;;;5032373;28;20188;-77
2021/05/12 11:51:51;;;;;;;15.17;3.70;;;17.20;99.90;;;;;;5032623;28;20173;-77
2021/05/12 11:54:25;;;;;;;21.63;3.57;;;17.10;99.90;;;;;;5020288;28;20611;-74
2021/05/12 11:56:55;;;;;;;21.93;3.90;;;17.20;99.90;;;;;;5031071;28;20188;-74
2021/05/12 11:59:25;;;;;;;15.83;2.60;;;17.20;99.90;;;;;;5032406;28;20667;-74
2021/05/12 12:02:07;;;;;;;23.50;3.80;;;17.20;99.90;;;;;;5032979;28;20529;-75
2021/05/12 12:04:59;;;;;;;15.17;3.33;;;17.30;99.90;;;;;;5032660;28;20200;-75
2021/05/12 12:07:25;;;;;;;26.27;4.50;;;17.30;99.90;;;;;;5030663;28;20526;-75
2021/05/12 12:10:07;;;;;;;28.73;4.50;;;17.30;99.90;;;;;;5032002;28;20184;-74
2021/05/12 12:12:35;;;;;;;20.27;3.47;;;17.30;99.90;;;;;;5032577;28;20223;-74
2021/05/12 12:15:12;;;;;;;23.00;3.40;;;17.30;99.90;;;;;;5032486;28;20208;-74
2021/05/12 12:17:39;;;;;;;27.17;3.60;;;17.30;99.90;;;;;;5032269;28;20180;-75
2021/05/12 12:20:08;;;;;;;19.73;4.40;;;17.30;99.90;;;;;;5031547;28;20319;-76
2021/05/12 12:22:36;;;;;;;18.00;3.33;;;17.30;99.90;;;;;;5032272;28;20196;-76
2021/05/12 12:25:17;;;;;;;25.47;3.00;;;17.20;99.90;;;;;;5031196;28;20177;-72
2021/05/12 12:27:45;;;;;;;22.20;3.40;;;17.20;99.90;;;;;;5032615;28;20326;-75
2021/05/12 12:30:17;;;;;;;18.80;3.13;;;17.10;99.90;;;;;;5032208;28;20203;-75
2021/05/12 12:32:45;;;;;;;18.63;3.17;;;17.10;99.90;;;;;;5032236;28;20231;-75
2021/05/12 12:35:12;;;;;;;17.50;3.00;;;17.10;99.90;;;;;;5032484;28;20334;-76
2021/05/12 12:37:42;;;;;;;23.97;4.10;;;17.20;99.90;;;;;;5047624;28;20192;-74
2021/05/12 12:40:11;;;;;;;17.70;2.87;;;17.10;99.90;;;;;;5031092;28;20183;-75
2021/05/12 12:42:49;;;;;;;19.13;2.80;;;17.10;99.90;;;;;;5032453;28;20271;-74
2021/05/12 12:45:29;;;;;;;19.97;3.27;;;17.10;99.90;;;;;;5031627;28;20273;-75
2021/05/12 12:48:07;;;;;;;18.70;3.50;;;17.20;99.90;;;;;;5031288;28;20215;-75
2021/05/12 12:50:36;;;;;;;14.80;2.90;;;17.10;99.90;;;;;;5031289;28;20242;-73
2021/05/12 12:53:10;;;;;;;21.70;3.10;;;17.10;99.90;;;;;;5031747;28;20185;-72
2021/05/12 12:55:38;;;;;;;13.43;3.17;;;17.10;99.90;;;;;;5032229;28;20216;-73
2021/05/12 12:58:08;;;;;;;16.00;3.30;;;17.00;99.90;;;;;;5032133;28;20225;-71
2021/05/12 13:00:45;;;;;;;16.43;3.50;;;17.00;99.90;;;;;;5032079;28;20533;-72
2021/05/12 13:03:21;;;;;;;18.00;3.70;;;17.00;99.90;;;;;;5031027;28;20172;-74
2021/05/12 13:05:55;;;;;;;20.80;2.90;;;16.90;99.90;;;;;;5032555;28;20195;-71
2021/05/12 13:08:34;;;;;;;13.80;2.43;;;16.90;99.90;;;;;;5032160;28;20213;-75